Time;durP1;ratioP1;P1;durP2;ratioP2;P2;SDS_P1;SDS_P2;PMS_P1;PMS_P2;Temp;Humidity;BMP_temperature;BMP_pressure;BME280_temperature;BME280_humidity;BME280_pressure;Samples;Min_cycle;Max_cycle;Signal;HPM_P1;HPM_P2
2022/09/23 00:00:09;;;;;;;7.45;5.70;;;;;;;13.11;63.33;101690.84;5014817;28;20079;-87
2022/09/23 00:02:35;;;;;;;8.13;5.60;;;;;;;13.03;63.64;101696.03;5014806;28;20030;-87
2022/09/23 00:05:00;;;;;;;8.32;5.55;;;;;;;12.86;64.16;101678.97;5014514;28;20553;-87
2022/09/23 00:07:26;;;;;;;10.23;5.63;;;;;;;12.91;64.19;101679.94;5014757;28;20079;-87
2022/09/23 00:09:51;;;;;;;8.27;5.80;;;;;;;12.85;64.34;101681.59;5015008;28;20041;-87
2022/09/23 00:12:17;;;;;;;8.65;5.65;;;;;;;12.89;63.94;101676.38;4981655;28;20040;-87
2022/09/23 00:14:42;;;;;;;9.63;5.63;;;;;;;12.98;63.76;101684.47;4997077;28;20434;-88
2022/09/23 00:17:07;;;;;;;11.43;6.18;;;;;;;13.01;63.79;101679.19;4980972;28;20101;-87
2022/09/23 00:19:33;;;;;;;8.70;6.03;;;;;;;13.04;63.84;101678.34;5014321;28;20508;-86
2022/09/23 00:21:58;;;;;;;12.00;5.95;;;;;;;12.89;64.36;101680.75;5014437;28;20022;-87
2022/09/23 00:24:24;;;;;;;11.63;5.88;;;;;;;12.88;64.39;101671.03;5014293;28;20465;-86
2022/09/23 00:26:49;;;;;;;9.88;5.75;;;;;;;12.78;64.58;101675.31;4996674;28;20061;-86
2022/09/23 00:29:15;;;;;;;10.60;6.10;;;;;;;12.72;64.70;101669.94;5014470;28;20033;-87
2022/09/23 00:31:41;;;;;;;10.65;6.18;;;;;;;12.70;64.97;101664.59;4996949;28;20026;-86
2022/09/23 00:34:10;;;;;;;8.02;5.70;;;;;;;12.65;64.91;101660.97;5014325;28;20386;-86
2022/09/23 00:36:35;;;;;;;8.10;5.75;;;;;;;12.68;64.75;101663.69;4997043;28;20075;-86
2022/09/23 00:39:02;;;;;;;8.38;6.07;;;;;;;12.60;65.23;101659.13;5014283;28;20405;-86
2022/09/23 00:41:29;;;;;;;8.57;5.80;;;;;;;12.69;65.01;101662.81;4996885;28;20030;-86
2022/09/23 00:43:57;;;;;;;10.07;5.75;;;;;;;12.72;64.40;101662.88;5014130;28;20026;-86
2022/09/23 00:46:31;;;;;;;10.85;5.90;;;;;;;12.72;64.18;101656.69;5014190;28;20022;-86
2022/09/23 00:49:10;;;;;;;9.63;6.05;;;;;;;12.78;64.15;101654.09;5013967;28;20017;-86
2022/09/23 00:51:40;;;;;;;14.52;6.45;;;;;;;12.74;64.39;101649.63;5015007;28;20050;-86
2022/09/23 00:54:06;;;;;;;11.20;6.63;;;;;;;12.75;64.42;101651.41;5014735;28;20034;-86
2022/09/23 00:56:33;;;;;;;10.65;6.00;;;;;;;12.64;64.64;101651.25;4980215;28;20547;-86
2022/09/23 00:59:00;;;;;;;7.82;5.47;;;;;;;12.62;64.68;101660.03;4980313;28;20030;-86
2022/09/23 01:01:25;;;;;;;11.05;6.18;;;;;;;12.58;64.73;101655.56;5000895;28;20053;-86
2022/09/23 01:03:53;;;;;;;8.07;5.70;;;;;;;12.47;65.49;101658.94;5002959;28;20017;-86
2022/09/23 01:06:19;;;;;;;9.73;6.13;;;;;;;12.35;65.37;101653.44;5003115;28;20033;-86
2022/09/23 01:08:46;;;;;;;9.88;6.20;;;;;;;12.38;65.30;101642.91;5020272;28;20095;-86
2022/09/23 01:11:21;;;;;;;10.13;5.80;;;;;;;12.44;65.55;101647.41;5020152;28;20386;-86
2022/09/23 01:14:15;;;;;;;11.30;6.07;;;;;;;12.49;64.75;101651.00;5020490;28;20061;-87
2022/09/23 01:16:57;;;;;;;11.07;6.22;;;;;;;12.49;64.74;101649.25;5020439;28;20026;-87
2022/09/23 01:19:59;;;;;;;8.30;6.00;;;;;;;12.43;64.74;101650.91;5020232;28;20022;-86
2022/09/23 01:22:37;;;;;;;9.43;5.93;;;;;;;12.37;64.89;101645.50;5020534;28;20018;-86
2022/09/23 01:25:30;;;;;;;9.38;6.65;;;;;;;12.42;64.71;101643.81;5020550;28;20364;-87
2022/09/23 01:28:23;;;;;;;9.07;6.38;;;;;;;12.38;64.89;101644.66;5014100;28;20041;-86
2022/09/23 01:31:08;;;;;;;8.60;6.18;;;;;;;12.38;65.02;101642.00;5020259;28;20096;-86
2022/09/23 01:33:47;;;;;;;10.23;6.10;;;;;;;12.44;64.64;101640.31;5002357;28;20041;-87
2022/09/23 01:36:26;;;;;;;9.13;6.30;;;;;;;12.52;64.38;101633.38;5002894;28;20514;-86
2022/09/23 01:39:02;;;;;;;7.88;6.45;;;;;;;12.48;64.27;101634.22;5019991;28;20053;-87
2022/09/23 01:41:57;;;;;;;11.30;6.38;;;;;;;12.49;64.38;101628.03;5020280;28;20084;-87
2022/09/23 01:45:06;;;;;;;14.75;6.60;;;;;;;12.55;63.45;101635.22;5020539;28;20028;-87
2022/09/23 01:47:39;;;;;;;12.27;6.70;;;;;;;12.37;64.84;101633.13;4959498;28;20090;-87
2022/09/23 01:52:58;;;;;;;10.05;6.78;;;;;;;12.21;65.28;101636.44;5003293;28;20604;-87
2022/09/23 01:55:29;;;;;;;9.32;6.68;;;;;;;12.16;65.73;101635.44;5021053;28;20064;-87
2022/09/23 01:58:04;;;;;;;10.93;6.68;;;;;;;12.05;65.90;101637.03;5020411;28;20025;-87
2022/09/23 02:00:34;;;;;;;10.63;6.28;;;;;;;11.97;66.32;101636.88;5020984;28;20040;-87
2022/09/23 02:03:06;;;;;;;9.65;7.03;;;;;;;11.89;66.78;101633.22;5020786;28;20053;-87
2022/09/23 02:05:37;;;;;;;12.90;7.00;;;;;;;11.85;66.75;101628.72;5020732;28;20168;-88
2022/09/23 02:08:20;;;;;;;11.00;7.55;;;;;;;11.79;67.26;101635.66;5020368;28;20119;-87
2022/09/23 02:10:58;;;;;;;10.15;6.70;;;;;;;11.74;67.38;101631.16;5019997;28;20136;-87
2022/09/23 02:13:40;;;;;;;11.23;7.22;;;;;;;11.65;67.38;101616.00;5018209;28;20446;-88
2022/09/23 02:16:15;;;;;;;13.87;7.13;;;;;;;11.62;67.69;101618.56;5018537;28;20018;-87
2022/09/23 02:19:10;;;;;;;15.07;6.80;;;;;;;11.70;67.48;101624.00;5018672;28;20049;-88
2022/09/23 02:21:40;;;;;;;9.82;6.85;;;;;;;11.72;67.83;101631.09;5018150;28;20037;-88
2022/09/23 02:24:08;;;;;;;8.88;6.53;;;;;;;11.85;68.02;101624.31;5018283;28;20473;-88
2022/09/23 02:26:40;;;;;;;10.40;6.72;;;;;;;11.93;67.18;101613.84;5018423;28;20128;-88
2022/09/23 02:29:25;;;;;;;10.40;7.40;;;;;;;11.99;67.38;101617.53;5018925;28;20033;-87
2022/09/23 02:32:18;;;;;;;8.23;6.65;;;;;;;11.92;66.89;101602.38;5019326;28;20461;-87
2022/09/23 02:34:43;;;;;;;;;;;;;;;12.02;64.97;101617.56;5020123;28;20022;-87
2022/09/23 02:37:15;;;;;;;12.23;6.30;;;;;;;11.83;67.12;101599.56;5002371;28;19934;-87
2022/09/23 02:39:56;;;;;;;8.73;6.60;;;;;;;11.92;67.27;101601.50;5002649;28;20273;-87
2022/09/23 02:42:30;;;;;;;9.82;6.15;;;;;;;11.89;67.36;101588.19;5020545;28;20033;-87
2022/09/23 02:44:55;;;;;;;11.85;7.10;;;;;;;11.95;67.14;101590.97;5002224;28;20025;-87
2022/09/23 02:47:26;;;;;;;10.27;7.00;;;;;;;11.94;67.10;101594.44;5001927;28;20036;-87
2022/09/23 02:49:54;;;;;;;10.15;6.78;;;;;;;11.88;67.27;101591.72;5001623;28;20032;-89
2022/09/23 02:52:19;;;;;;;9.20;6.93;;;;;;;11.89;67.33;101589.06;5018652;28;20030;-89
2022/09/23 02:54:45;;;;;;;13.02;7.05;;;;;;;11.93;66.67;101584.72;4999725;28;20034;-88
2022/09/23 02:57:10;;;;;;;9.93;6.88;;;;;;;11.90;67.56;101574.06;5016245;28;20084;-88
2022/09/23 02:59:36;;;;;;;9.50;6.88;;;;;;;11.90;67.29;101588.19;4998960;28;20362;-88
2022/09/23 03:02:15;;;;;;;9.57;7.00;;;;;;;11.76;68.33;101584.41;4998715;28;20033;-88
2022/09/23 03:04:52;;;;;;;10.25;6.63;;;;;;;11.61;68.50;101576.19;5015962;28;20458;-88
2022/09/23 03:07:48;;;;;;;10.27;7.05;;;;;;;11.53;68.65;101571.63;5016388;28;20034;-88
2022/09/23 03:10:32;;;;;;;10.05;6.72;;;;;;;11.46;68.04;101567.09;5015876;28;20030;-88
2022/09/23 03:13:18;;;;;;;11.38;6.38;;;;;;;11.36;68.48;101582.78;4998352;28;20383;-88
2022/09/23 03:15:59;;;;;;;11.30;6.55;;;;;;;11.22;69.13;101571.91;5015785;28;20030;-89
2022/09/23 03:18:40;;;;;;;10.00;6.35;;;;;;;11.15;69.35;101562.09;5016022;28;20018;-88
2022/09/23 03:21:12;;;;;;;10.00;6.22;;;;;;;11.12;69.56;101567.31;4998403;28;20036;-89
2022/09/23 03:23:39;;;;;;;8.52;6.63;;;;;;;11.06;69.91;101564.53;5016063;28;20056;-88
2022/09/23 03:26:36;;;;;;;8.57;6.72;;;;;;;11.07;69.10;101567.22;5015741;28;20092;-88
2022/09/23 03:29:04;;;;;;;8.40;6.40;;;;;;;10.99;69.95;101566.16;5003080;28;20049;-88
2022/09/23 03:31:31;;;;;;;8.98;6.72;;;;;;;10.94;70.27;101559.88;5015417;28;20036;-88
2022/09/23 03:34:00;;;;;;;9.02;6.78;;;;;;;11.05;70.04;101563.66;4998157;28;20355;-88
2022/09/23 03:36:56;;;;;;;10.68;7.15;;;;;;;11.02;70.51;101560.94;4997598;28;20026;-88
2022/09/23 03:39:33;;;;;;;10.77;6.97;;;;;;;11.01;70.77;101560.06;5015287;28;20030;-88
2022/09/23 03:42:06;;;;;;;10.45;6.70;;;;;;;11.01;70.34;101559.16;5015299;28;20065;-88
2022/09/23 03:44:36;;;;;;;;;;;;;;;11.17;68.06;101561.22;5015910;28;20049;-88
2022/09/23 03:47:02;;;;;;;9.38;7.13;;;;;;;10.99;70.29;101545.91;4998406;28;19959;-88
2022/09/23 03:49:32;;;;;;;10.10;6.65;;;;;;;11.06;69.78;101567.19;4997697;28;20474;-87
2022/09/23 03:51:59;;;;;;;10.20;6.63;;;;;;;11.11;68.92;101566.41;5015648;28;20030;-87
2022/09/23 03:54:24;;;;;;;9.68;6.65;;;;;;;11.08;68.62;101553.13;4997707;28;20053;-87
2022/09/23 03:56:51;;;;;;;9.25;6.40;;;;;;;11.16;69.00;101555.91;4997451;28;20108;-87
2022/09/23 03:59:16;;;;;;;11.90;6.60;;;;;;;11.18;68.50;101552.47;5014887;28;20061;-87
2022/09/23 04:01:42;;;;;;;10.27;6.85;;;;;;;11.13;69.60;101551.44;5015027;28;20053;-87
2022/09/23 04:04:09;;;;;;;10.32;7.07;;;;;;;11.15;69.55;101551.50;4997334;28;20026;-87
2022/09/23 04:06:34;;;;;;;13.05;6.80;;;;;;;11.17;69.05;101547.13;5014809;28;20030;-87
2022/09/23 04:09:00;;;;;;;10.13;7.10;;;;;;;11.12;69.42;101541.75;5015021;28;20036;-87
2022/09/23 04:11:26;;;;;;;14.38;6.82;;;;;;;11.07;69.37;101554.00;4997974;28;20032;-87
2022/09/23 04:13:52;;;;;;;9.45;6.53;;;;;;;11.00;69.72;101541.50;4981369;28;20037;-87
2022/09/23 04:16:17;;;;;;;11.95;6.82;;;;;;;10.99;69.70;101548.53;5014341;28;20030;-88
2022/09/23 04:18:43;;;;;;;8.38;6.95;;;;;;;10.96;70.20;101540.56;5014589;28;20466;-87
2022/09/23 04:21:08;;;;;;;8.63;6.60;;;;;;;10.99;69.53;101542.38;5014851;28;20030;-87
2022/09/23 04:23:34;;;;;;;10.75;6.97;;;;;;;11.01;69.24;101545.94;4980746;28;20025;-87
2022/09/23 04:25:59;;;;;;;9.88;7.18;;;;;;;10.95;69.84;101545.81;5014721;28;20056;-87
2022/09/23 04:28:24;;;;;;;9.25;6.97;;;;;;;10.96;69.35;101547.56;5014332;28;20028;-87
2022/09/23 04:30:50;;;;;;;7.47;6.38;;;;;;;10.98;69.57;101553.81;4980771;28;20057;-88
2022/09/23 04:33:16;;;;;;;9.18;6.80;;;;;;;10.98;69.06;101541.47;4996514;28;20033;-87
2022/09/23 04:35:42;;;;;;;10.70;6.65;;;;;;;11.06;69.34;101540.75;5013814;28;20053;-88
2022/09/23 04:38:10;;;;;;;8.63;6.47;;;;;;;11.07;69.19;101543.41;5014138;28;20076;-88
2022/09/23 04:40:35;;;;;;;8.55;6.38;;;;;;;11.04;68.99;101543.34;5014314;28;20109;-87
2022/09/23 04:43:01;;;;;;;11.00;6.90;;;;;;;10.98;69.68;101544.13;5014178;28;20057;-87
2022/09/23 04:45:26;;;;;;;9.25;6.72;;;;;;;10.92;69.50;101545.72;4996754;28;20034;-87
2022/09/23 04:47:52;;;;;;;12.13;6.78;;;;;;;10.92;69.78;101543.09;4996550;28;20084;-87
2022/09/23 04:50:17;;;;;;;9.43;7.00;;;;;;;10.95;69.58;101543.16;4996727;28;20224;-87
2022/09/23 04:52:43;;;;;;;10.52;6.35;;;;;;;10.91;69.19;101543.94;4996586;28;20481;-87
2022/09/23 04:55:08;;;;;;;10.20;6.78;;;;;;;10.97;69.31;101542.34;4980326;28;20477;-87
2022/09/23 04:57:34;;;;;;;8.13;6.80;;;;;;;10.88;69.17;101525.41;4996293;28;20137;-87
2022/09/23 05:00:00;;;;;;;9.05;6.38;;;;;;;10.86;69.57;101519.19;5013830;28;20040;-87
2022/09/23 05:02:26;;;;;;;12.27;7.20;;;;;;;10.91;70.02;101536.91;4996784;28;20034;-88
2022/09/23 05:04:51;;;;;;;9.15;6.55;;;;;;;10.89;69.38;101529.81;5014200;28;20025;-87
2022/09/23 05:07:19;;;;;;;11.50;6.60;;;;;;;10.87;69.17;101524.47;5014000;28;20116;-88
2022/09/23 05:09:45;;;;;;;8.90;6.70;;;;;;;10.82;69.51;101518.22;5013847;28;20550;-87
2022/09/23 05:12:10;;;;;;;11.73;7.03;;;;;;;10.93;70.06;101532.56;5014305;28;20045;-87
2022/09/23 05:14:37;;;;;;;10.00;6.93;;;;;;;10.89;70.25;101521.91;5014104;28;20029;-87
2022/09/23 05:17:03;;;;;;;10.18;7.07;;;;;;;10.99;70.21;101539.72;4996692;28;20121;-87
2022/09/23 05:19:29;;;;;;;10.25;6.90;;;;;;;11.10;69.56;101543.47;5014120;28;20056;-87
2022/09/23 05:21:54;;;;;;;9.75;7.05;;;;;;;11.08;69.22;101541.66;4996447;28;20463;-87
2022/09/23 05:24:23;;;;;;;14.93;6.82;;;;;;;11.02;69.74;101540.69;5013599;28;20026;-88
2022/09/23 05:26:49;;;;;;;11.05;6.80;;;;;;;11.00;69.48;101537.09;4996748;28;20050;-88
2022/09/23 05:29:15;;;;;;;10.85;6.80;;;;;;;11.03;69.38;101541.56;5013909;28;20034;-88
2022/09/23 05:31:40;;;;;;;9.95;6.65;;;;;;;11.07;69.70;101543.41;4980259;28;20117;-87
2022/09/23 05:34:05;;;;;;;11.38;6.47;;;;;;;11.01;69.10;101530.97;5013769;28;20037;-88
2022/09/23 05:36:34;;;;;;;9.57;6.88;;;;;;;11.13;68.96;101539.97;4996212;28;20408;-88
2022/09/23 05:39:00;;;;;;;8.63;6.30;;;;;;;11.08;69.13;101542.53;5013866;28;20104;-87
2022/09/23 05:41:26;;;;;;;9.57;6.65;;;;;;;10.96;69.17;101552.88;4996620;28;20072;-88
2022/09/23 05:43:52;;;;;;;9.70;6.85;;;;;;;10.83;70.35;101557.00;4996196;28;20458;-88
2022/09/23 05:46:21;;;;;;;8.63;6.47;;;;;;;10.80;70.82;101545.50;4996192;28;20030;-88
2022/09/23 05:48:47;;;;;;;9.45;6.50;;;;;;;10.87;70.64;101558.84;4999020;28;20025;-87
2022/09/23 05:51:19;;;;;;;10.55;6.43;;;;;;;10.90;70.20;101558.94;5000326;28;20033;-89
2022/09/23 05:53:45;;;;;;;11.18;7.20;;;;;;;10.96;70.35;101550.22;5017709;28;20025;-88
2022/09/23 05:56:16;;;;;;;11.48;6.95;;;;;;;10.98;71.06;101556.44;5017181;28;20088;-87
2022/09/23 05:58:42;;;;;;;10.30;6.72;;;;;;;11.03;70.73;101545.09;4999962;28;20030;-88
2022/09/23 06:01:12;;;;;;;8.73;6.30;;;;;;;11.18;70.19;101557.75;4999568;28;20518;-88
2022/09/23 06:03:38;;;;;;;9.23;6.50;;;;;;;11.24;69.90;101554.31;5017400;28;20040;-88
2022/09/23 06:06:04;;;;;;;9.60;6.40;;;;;;;11.19;70.22;101545.41;5016794;28;20433;-87
2022/09/23 06:08:30;;;;;;;9.93;6.82;;;;;;;11.22;70.09;101559.59;4999441;28;20029;-88
2022/09/23 06:10:56;;;;;;;10.57;6.53;;;;;;;11.26;70.34;101557.88;5017209;28;20025;-88
2022/09/23 06:13:22;;;;;;;11.75;6.40;;;;;;;11.23;70.37;101545.50;5016993;28;20034;-88
2022/09/23 06:15:47;;;;;;;10.35;6.72;;;;;;;11.30;70.14;101559.72;5016593;28;20028;-88
2022/09/23 06:18:12;;;;;;;9.02;6.63;;;;;;;11.36;70.57;101551.03;5016738;28;20025;-87
2022/09/23 06:20:38;;;;;;;11.43;6.53;;;;;;;11.45;70.42;101553.84;5016574;28;20061;-88
2022/09/23 06:23:12;;;;;;;9.38;6.70;;;;;;;11.38;70.43;101539.59;5017024;28;20030;-87
2022/09/23 06:25:37;;;;;;;13.18;7.00;;;;;;;11.41;70.42;101541.41;5017510;28;20132;-87
2022/09/23 06:28:05;;;;;;;8.70;6.55;;;;;;;11.41;70.64;101544.94;5000030;28;20096;-87
2022/09/23 06:30:32;;;;;;;12.88;6.45;;;;;;;11.39;71.11;101538.75;5017138;28;20096;-88
2022/09/23 06:32:58;;;;;;;14.48;7.93;;;;;;;11.49;70.75;101543.34;5015688;28;20034;-87
2022/09/23 06:35:25;;;;;;;10.82;6.30;;;;;;;11.54;70.56;101538.13;4998860;28;20032;-88
2022/09/23 06:37:52;;;;;;;8.57;6.13;;;;;;;11.61;70.34;101539.13;5016357;28;20474;-86
2022/09/23 06:40:17;;;;;;;10.93;6.43;;;;;;;11.65;70.85;101539.22;4999008;28;20022;-88
2022/09/23 06:42:43;;;;;;;10.68;6.72;;;;;;;11.66;70.90;101535.69;5016973;28;20365;-89
2022/09/23 06:45:14;;;;;;;11.15;7.20;;;;;;;11.65;70.76;101530.34;4998616;28;20433;-88
2022/09/23 06:47:41;;;;;;;8.55;6.25;;;;;;;11.71;70.92;101546.38;5016382;28;20025;-89
2022/09/23 06:50:07;;;;;;;11.38;6.40;;;;;;;11.75;71.26;101535.84;4998282;28;20021;-89
2022/09/23 06:52:33;;;;;;;9.63;7.20;;;;;;;11.79;71.74;101542.97;4998171;28;20033;-89
2022/09/23 06:54:59;;;;;;;12.95;6.65;;;;;;;11.83;71.32;101541.31;4982462;28;20041;-90
2022/09/23 06:57:31;;;;;;;8.60;6.40;;;;;;;11.87;71.45;101532.56;4998880;28;20350;-89
2022/09/23 06:59:58;;;;;;;10.07;6.43;;;;;;;12.02;70.91;101542.50;4998882;28;20040;-90
2022/09/23 07:02:24;;;;;;;10.60;6.78;;;;;;;11.96;71.19;101539.75;5015930;28;20489;-90
2022/09/23 07:04:50;;;;;;;11.05;6.68;;;;;;;12.11;71.08;101539.09;5015951;28;20033;-90
2022/09/23 07:07:17;;;;;;;9.77;6.53;;;;;;;12.16;71.19;101538.31;4998419;28;20029;-90
2022/09/23 07:09:44;;;;;;;9.57;6.38;;;;;;;12.20;71.69;101536.59;5016147;28;20030;-90
2022/09/23 07:12:10;;;;;;;9.65;6.35;;;;;;;12.27;70.93;101544.66;4997894;28;20034;-93
2022/09/23 07:14:35;;;;;;;12.77;6.82;;;;;;;12.35;71.11;101546.53;4998051;28;20032;-90
2022/09/23 07:17:02;;;;;;;9.00;6.30;;;;;;;12.36;70.63;101540.38;4998172;28;20433;-88
2022/09/23 07:19:28;;;;;;;11.95;7.10;;;;;;;12.44;71.15;101544.03;5016064;28;20038;-88
2022/09/23 07:21:53;;;;;;;11.43;6.38;;;;;;;12.50;70.83;101544.09;4998010;28;20084;-88
2022/09/23 07:24:18;;;;;;;10.35;6.43;;;;;;;12.57;71.06;101542.44;4998131;28;20120;-88
2022/09/23 07:26:44;;;;;;;10.50;6.57;;;;;;;12.70;70.80;101547.91;4998400;28;20109;-88
2022/09/23 07:29:12;;;;;;;10.40;6.00;;;;;;;12.78;70.94;101540.94;4981670;28;20433;-88
2022/09/23 07:31:38;;;;;;;9.88;6.28;;;;;;;12.84;70.33;101540.13;5015348;28;20018;-88
2022/09/23 07:34:04;;;;;;;10.93;6.57;;;;;;;12.86;70.77;101534.88;4998012;28;20097;-89
2022/09/23 07:36:32;;;;;;;14.00;6.45;;;;;;;12.95;69.70;101537.63;4997891;28;20030;-88
2022/09/23 07:39:02;;;;;;;13.23;6.60;;;;;;;12.95;70.15;101537.63;4981816;28;20037;-88
2022/09/23 07:41:29;;;;;;;10.05;6.00;;;;;;;13.12;69.37;101546.66;5015264;28;20053;-88
2022/09/23 07:43:57;;;;;;;12.65;6.38;;;;;;;13.07;69.94;101551.03;5015521;28;20026;-88
2022/09/23 07:46:28;;;;;;;13.98;6.57;;;;;;;13.13;69.69;101537.81;4997935;28;20109;-88
2022/09/23 07:48:54;;;;;;;11.55;6.50;;;;;;;13.14;69.39;101536.94;5015777;28;20029;-88
2022/09/23 07:51:29;;;;;;;12.05;6.32;;;;;;;13.28;68.91;101537.16;4997610;28;20034;-88
2022/09/23 07:53:55;;;;;;;9.35;6.35;;;;;;;13.44;69.34;101540.84;5014688;28;20079;-88
2022/09/23 07:56:25;;;;;;;11.73;6.13;;;;;;;13.61;69.00;101536.59;5015767;28;20021;-88
2022/09/23 07:58:59;;;;;;;10.75;6.45;;;;;;;13.81;68.34;101539.44;5014703;28;20458;-88
2022/09/23 08:01:31;;;;;;;12.45;5.85;;;;;;;13.96;67.39;101533.34;4999000;28;20084;-88
2022/09/23 08:03:58;;;;;;;13.18;6.25;;;;;;;14.15;66.34;101540.59;5014853;28;20088;-89
2022/09/23 08:06:24;;;;;;;11.32;6.00;;;;;;;14.29;66.53;101540.66;5014914;28;20454;-88
2022/09/23 08:08:50;;;;;;;10.63;6.28;;;;;;;14.37;66.87;101538.94;4997279;28;20080;-88
2022/09/23 08:11:15;;;;;;;10.77;6.03;;;;;;;14.43;65.25;101543.41;5014405;28;20026;-88
2022/09/23 08:13:41;;;;;;;12.35;6.15;;;;;;;14.56;65.80;101544.41;5016852;28;20052;-88
2022/09/23 08:16:07;;;;;;;12.48;5.85;;;;;;;14.67;66.07;101540.03;5016722;28;20347;-87
2022/09/23 08:18:33;;;;;;;16.23;6.88;;;;;;;14.66;64.80;101544.47;5017972;28;20125;-88
2022/09/23 08:20:58;;;;;;;10.18;5.82;;;;;;;14.73;63.04;101540.97;5018025;28;20051;-88
2022/09/23 08:23:24;;;;;;;13.90;6.45;;;;;;;14.73;63.53;101546.31;5015473;28;20463;-89
2022/09/23 08:25:58;;;;;;;8.48;6.03;;;;;;;14.71;62.79;101542.72;5014235;28;20531;-88
2022/09/23 08:28:24;;;;;;;12.38;6.20;;;;;;;14.82;64.16;101555.19;4997182;28;20053;-89
2022/09/23 08:30:49;;;;;;;11.85;6.20;;;;;;;14.82;62.11;101541.88;5014503;28;20485;-88
2022/09/23 08:33:15;;;;;;;14.25;6.57;;;;;;;14.94;63.58;101547.25;5014337;28;20038;-88
2022/09/23 08:35:40;;;;;;;13.10;6.63;;;;;;;15.00;61.90;101549.97;4997244;28;20189;-88
2022/09/23 08:38:06;;;;;;;14.27;6.60;;;;;;;14.97;62.16;101548.16;4980185;28;20466;-88
2022/09/23 08:40:43;;;;;;;17.77;6.70;;;;;;;15.10;62.15;101538.44;5013933;28;20417;-88
2022/09/23 08:43:28;;;;;;;12.13;6.35;;;;;;;15.25;62.88;101541.16;5014098;28;20117;-89
2022/09/23 08:45:57;;;;;;;11.32;6.43;;;;;;;15.42;60.67;101549.19;4996847;28;20080;-88
2022/09/23 08:48:45;;;;;;;17.58;6.18;;;;;;;15.62;61.40;101549.22;5013924;28;20076;-88
2022/09/23 08:51:20;;;;;;;10.50;6.18;;;;;;;15.56;59.93;101545.66;5014221;28;20034;-88
2022/09/23 08:53:46;;;;;;;13.55;6.47;;;;;;;15.53;59.82;101542.09;4997333;28;20030;-89
2022/09/23 08:56:35;;;;;;;11.18;6.30;;;;;;;15.55;59.90;101544.78;5014003;28;20033;-88
2022/09/23 08:59:07;;;;;;;13.40;5.80;;;;;;;15.62;59.52;101537.66;5011009;28;20092;-88
2022/09/23 09:01:54;;;;;;;14.32;6.32;;;;;;;15.79;60.70;101543.94;5012305;28;20022;-88
2022/09/23 09:04:26;;;;;;;10.70;6.00;;;;;;;15.99;59.81;101542.16;5013763;28;20084;-88
2022/09/23 09:07:01;;;;;;;10.35;5.75;;;;;;;16.13;57.85;101538.59;5014312;28;20036;-88
2022/09/23 09:09:35;;;;;;;14.07;5.90;;;;;;;16.27;57.67;101535.03;5014892;28;20060;-89
2022/09/23 09:12:18;;;;;;;13.10;6.03;;;;;;;16.45;59.28;101536.78;5014200;28;20028;-88
2022/09/23 09:14:58;;;;;;;12.55;5.80;;;;;;;16.65;58.31;101535.81;4996853;28;20032;-89
2022/09/23 09:17:35;;;;;;;15.85;6.10;;;;;;;16.73;59.00;101531.38;4996485;28;20112;-88
2022/09/23 09:20:06;;;;;;;10.90;5.70;;;;;;;16.70;58.98;101532.25;5012873;28;20029;-88
2022/09/23 09:22:51;;;;;;;11.70;5.80;;;;;;;16.76;58.03;101531.38;4998709;28;20458;-88
2022/09/23 09:25:57;;;;;;;13.73;5.88;;;;;;;16.97;57.90;101535.75;5017552;28;20104;-88
2022/09/23 09:28:34;;;;;;;10.73;5.20;;;;;;;17.10;56.08;101525.88;4957121;28;20039;-88
2022/09/23 09:31:20;;;;;;;9.75;5.30;;;;;;;17.00;55.30;101511.66;4994249;28;20079;-89
2022/09/23 09:33:56;;;;;;;9.77;5.35;;;;;;;17.15;56.89;101529.41;5000126;28;20026;-88
2022/09/23 09:36:43;;;;;;;11.68;5.40;;;;;;;17.28;57.64;101526.66;5018098;28;20025;-88
2022/09/23 09:39:13;;;;;;;11.85;5.60;;;;;;;17.34;55.65;101519.50;5017869;28;20084;-88
2022/09/23 09:41:47;;;;;;;12.48;5.82;;;;;;;17.33;55.24;101515.94;5017234;28;20026;-88
2022/09/23 09:44:29;;;;;;;11.05;5.68;;;;;;;17.49;55.80;101516.75;5017744;28;20097;-88
2022/09/23 09:47:28;;;;;;;9.32;5.32;;;;;;;17.76;55.65;101511.19;5017733;28;20042;-88
2022/09/23 09:50:20;;;;;;;10.75;5.15;;;;;;;17.97;54.09;101509.25;4984376;28;20030;-88
2022/09/23 09:52:55;;;;;;;9.27;4.45;;;;;;;18.10;52.40;101500.19;5000032;28;20034;-88
2022/09/23 09:55:27;;;;;;;9.48;4.93;;;;;;;18.32;51.37;101506.22;5016356;28;20129;-88
2022/09/23 09:58:04;;;;;;;11.55;5.10;;;;;;;18.65;49.68;101496.91;5017215;28;20022;-88
2022/09/23 10:00:30;;;;;;;11.68;4.75;;;;;;;18.82;50.38;101512.81;5017738;28;20038;-88
2022/09/23 10:03:00;;;;;;;12.50;5.22;;;;;;;18.67;48.60;101502.25;4999522;28;20030;-89
2022/09/23 10:05:27;;;;;;;8.05;4.70;;;;;;;18.59;47.59;101491.66;4999273;28;20033;-88
2022/09/23 10:07:53;;;;;;;8.82;4.63;;;;;;;18.75;49.11;101501.28;5000167;28;20032;-89
2022/09/23 10:10:25;;;;;;;7.38;4.50;;;;;;;18.81;47.73;101499.47;5016767;28;20083;-89
2022/09/23 10:12:51;;;;;;;7.05;4.00;;;;;;;19.01;48.79;101500.06;5017051;28;20022;-88
2022/09/23 10:15:32;;;;;;;8.18;4.28;;;;;;;19.04;48.44;101491.09;5016942;28;20101;-88
2022/09/23 10:18:00;;;;;;;9.80;4.40;;;;;;;19.18;46.69;101495.34;5016821;28;20049;-88
2022/09/23 10:20:37;;;;;;;10.30;4.50;;;;;;;19.02;47.56;101478.63;4999333;28;20112;-88
2022/09/23 10:23:20;;;;;;;13.30;4.63;;;;;;;19.15;48.12;101498.09;5016758;28;20076;-88
2022/09/23 10:26:06;;;;;;;11.88;5.53;;;;;;;19.08;47.09;101480.31;5017200;28;20108;-89
2022/09/23 10:28:43;;;;;;;8.45;3.65;;;;;;;19.17;46.63;101490.03;4999572;28;20034;-88
2022/09/23 10:31:14;;;;;;;10.68;4.05;;;;;;;19.17;46.38;101487.34;4998779;28;20026;-87
2022/09/23 10:33:49;;;;;;;7.25;3.67;;;;;;;19.16;47.24;101480.22;5015372;28;20112;-88
2022/09/23 10:36:16;;;;;;;7.63;3.58;;;;;;;19.21;44.84;101499.78;5016438;28;20061;-88
2022/09/23 10:38:42;;;;;;;8.07;3.80;;;;;;;19.14;44.67;101482.94;4999112;28;20042;-88
2022/09/23 10:47:22;;;;;;;6.97;3.70;;;;;;;19.29;46.07;101491.66;5017108;28;20255;-88
2022/09/23 10:50:13;;;;;;;7.20;3.90;;;;;;;19.08;45.72;101499.06;4998652;28;20076;-88
2022/09/23 10:53:04;;;;;;;6.53;3.70;;;;;;;19.10;45.92;101477.63;5016264;28;20029;-87
2022/09/23 10:55:50;;;;;;;7.97;4.00;;;;;;;19.03;46.59;101479.50;5015875;28;20076;-87
2022/09/23 10:58:46;;;;;;;12.20;3.80;;;;;;;18.95;45.79;101487.63;4998787;28;20034;-88
2022/09/23 11:01:18;;;;;;;6.25;3.72;;;;;;;18.86;47.25;101484.22;4986874;28;20069;-88
2022/09/23 11:04:00;;;;;;;9.73;3.77;;;;;;;18.76;46.99;101478.97;5016179;28;20030;-88
2022/09/23 11:06:47;;;;;;;6.38;3.65;;;;;;;18.74;47.58;101475.41;5016000;28;20104;-88
2022/09/23 11:09:42;;;;;;;8.23;3.63;;;;;;;18.85;48.61;101485.13;4998761;28;20370;-88
2022/09/23 11:12:41;;;;;;;10.68;3.70;;;;;;;18.95;47.96;101479.59;4998478;28;20034;-89
2022/09/23 11:15:17;;;;;;;7.68;3.60;;;;;;;19.09;47.08;101484.75;5016354;28;20117;-89
2022/09/23 11:18:04;;;;;;;9.95;3.75;;;;;;;19.00;47.02;101487.56;4998296;28;20025;-89
2022/09/23 11:20:41;;;;;;;6.47;3.80;;;;;;;18.92;46.84;101465.38;4998643;28;20032;-88
2022/09/23 11:23:20;;;;;;;7.57;3.92;;;;;;;19.09;46.97;101475.84;5015415;28;20030;-88
2022/09/23 11:26:15;;;;;;;6.43;3.70;;;;;;;19.12;46.14;101474.00;4998237;28;20048;-88
2022/09/23 11:29:08;;;;;;;10.10;3.55;;;;;;;19.13;46.49;101470.41;4998525;28;20018;-88
2022/09/23 11:32:13;;;;;;;12.02;3.63;;;;;;;19.14;46.24;101471.31;5016500;28;20028;-88
2022/09/23 11:34:47;;;;;;;11.05;3.63;;;;;;;19.20;45.95;101461.41;5012832;28;20037;-89
2022/09/23 11:37:21;;;;;;;11.02;3.42;;;;;;;19.17;45.39;101452.50;4998058;28;20097;-88
2022/09/23 11:40:04;;;;;;;9.43;3.55;;;;;;;19.16;45.08;101450.75;4998887;28;20450;-88
2022/09/23 11:42:39;;;;;;;5.82;3.33;;;;;;;19.29;46.75;101463.03;5015646;28;20053;-88
2022/09/23 11:45:07;;;;;;;5.68;3.10;;;;;;;19.32;45.50;101457.66;5015187;28;20469;-88
2022/09/23 11:47:52;;;;;;;8.32;3.58;;;;;;;19.22;45.65;101435.44;4998076;28;20038;-88
2022/09/23 11:50:24;;;;;;;9.48;4.10;;;;;;;19.38;48.85;101457.53;5015554;28;20026;-88
2022/09/23 11:53:03;;;;;;;8.48;4.03;;;;;;;19.34;48.16;101438.84;4998074;28;20022;-88